Time;durP1;ratioP1;P1;durP2;ratioP2;P2;SDS_P1;SDS_P2;PMS_P1;PMS_P2;Temp;Humidity;BMP_temperature;BMP_pressure;BME280_temperature;BME280_humidity;BME280_pressure;Samples;Min_cycle;Max_cycle;Signal;HPM_P1;HPM_P2
2021/09/19 00:01:27;;;;;;;9.97;8.90;;;13.20;99.90;;;;;;5092068;28;20575;-55
2021/09/19 00:03:53;;;;;;;10.27;8.70;;;13.10;99.90;;;;;;5085309;28;20264;-55
2021/09/19 00:06:19;;;;;;;9.53;8.20;;;13.00;99.90;;;;;;5076131;28;20851;-52
2021/09/19 00:08:44;;;;;;;9.43;8.53;;;13.00;99.90;;;;;;5082938;28;20468;-52
2021/09/19 00:11:10;;;;;;;8.87;8.07;;;13.00;99.90;;;;;;5069612;28;20569;-51
2021/09/19 00:13:36;;;;;;;8.40;7.53;;;12.90;99.90;;;;;;5091165;28;20242;-49
2021/09/19 00:16:01;;;;;;;9.90;8.33;;;12.80;99.90;;;;;;5074249;28;20232;-49
2021/09/19 00:18:27;;;;;;;8.47;7.67;;;12.80;99.90;;;;;;5078882;28;20279;-49
2021/09/19 00:20:52;;;;;;;8.20;7.40;;;12.80;99.90;;;;;;5076620;28;20648;-52
2021/09/19 00:23:18;;;;;;;8.97;7.90;;;12.80;99.90;;;;;;5091468;28;20181;-53
2021/09/19 00:25:44;;;;;;;8.80;7.93;;;12.80;99.90;;;;;;5077115;28;20514;-50
2021/09/19 00:28:09;;;;;;;8.93;8.03;;;12.80;99.90;;;;;;5090062;28;20266;-52
2021/09/19 00:30:35;;;;;;;9.17;8.23;;;12.80;99.90;;;;;;5079949;28;20217;-52
2021/09/19 00:33:01;;;;;;;9.33;8.53;;;12.80;99.90;;;;;;5087774;28;20654;-49
2021/09/19 00:35:27;;;;;;;8.40;7.60;;;12.80;99.90;;;;;;5082442;28;20188;-52
2021/09/19 00:37:53;;;;;;;8.03;7.23;;;12.80;99.90;;;;;;5088207;28;20185;-53
2021/09/19 00:40:19;;;;;;;8.90;8.00;;;12.80;99.90;;;;;;5084147;28;20458;-54
2021/09/19 00:42:45;;;;;;;9.80;7.27;;;12.80;99.90;;;;;;5084631;28;20463;-50
2021/09/19 00:45:17;;;;;;;8.00;7.30;;;12.80;99.90;;;;;;5085805;28;20439;-52
2021/09/19 00:47:43;;;;;;;7.83;7.13;;;12.70;99.90;;;;;;5086046;28;20493;-50
2021/09/19 00:50:12;;;;;;;10.30;7.33;;;12.70;99.90;;;;;;5085814;28;20523;-54
2021/09/19 00:52:40;;;;;;;9.23;8.20;;;12.70;99.90;;;;;;5085793;28;20433;-55
2021/09/19 00:55:08;;;;;;;9.20;7.63;;;12.60;99.90;;;;;;5087579;28;20418;-53
2021/09/19 00:57:38;;;;;;;9.10;8.17;;;12.60;99.90;;;;;;5056534;28;20416;-51
2021/09/19 01:00:05;;;;;;;7.60;6.90;;;12.60;99.90;;;;;;5051112;28;20974;-52
2021/09/19 01:02:32;;;;;;;9.57;7.90;;;12.60;99.90;;;;;;5070479;28;20424;-50
2021/09/19 01:04:58;;;;;;;9.27;8.33;;;12.60;99.90;;;;;;5069977;28;20799;-51
2021/09/19 01:07:23;;;;;;;10.43;7.67;;;12.60;99.90;;;;;;5065141;28;20532;-55
2021/09/19 01:09:52;;;;;;;8.43;7.63;;;12.60;99.90;;;;;;5073869;28;20802;-53
2021/09/19 01:12:20;;;;;;;9.50;8.50;;;12.70;99.90;;;;;;5068759;28;20212;-49
2021/09/19 01:14:47;;;;;;;9.50;8.27;;;12.60;99.90;;;;;;5070184;28;20444;-48
2021/09/19 01:17:13;;;;;;;8.40;7.60;;;12.60;99.90;;;;;;5084475;28;20434;-55
2021/09/19 01:19:41;;;;;;;12.33;9.37;;;12.60;99.90;;;;;;5089607;28;20901;-52
2021/09/19 01:22:07;;;;;;;9.60;8.70;;;12.60;99.90;;;;;;5075039;28;20431;-54
2021/09/19 01:24:34;;;;;;;9.30;8.40;;;12.70;99.90;;;;;;5090031;28;20423;-49
2021/09/19 01:27:00;;;;;;;10.97;8.30;;;12.70;99.90;;;;;;5076239;28;20481;-54
2021/09/19 01:29:26;;;;;;;9.40;7.80;;;12.70;99.90;;;;;;5089649;28;20446;-56
2021/09/19 01:31:52;;;;;;;8.93;8.13;;;12.70;99.90;;;;;;5075992;28;20432;-52
2021/09/19 01:34:17;;;;;;;8.63;7.80;;;12.70;99.90;;;;;;5069551;28;20238;-53
2021/09/19 01:36:43;;;;;;;10.30;8.70;;;12.70;99.90;;;;;;5068174;28;20938;-56
2021/09/19 01:39:09;;;;;;;8.80;7.90;;;12.60;99.90;;;;;;5079042;28;20193;-55
2021/09/19 01:41:35;;;;;;;9.07;7.57;;;12.60;99.90;;;;;;5055890;28;20644;-55
2021/09/19 01:44:04;;;;;;;9.80;8.90;;;12.70;99.90;;;;;;5069630;28;20471;-49
2021/09/19 01:46:29;;;;;;;9.03;8.10;;;12.70;99.90;;;;;;5069146;28;20562;-54
2021/09/19 01:48:55;;;;;;;9.30;8.40;;;12.70;99.90;;;;;;5069717;28;20573;-53
2021/09/19 01:51:20;;;;;;;9.47;8.57;;;12.70;99.90;;;;;;5067959;28;20254;-49
2021/09/19 01:53:48;;;;;;;8.93;8.03;;;12.90;99.90;;;;;;5069553;28;20311;-53
2021/09/19 01:56:14;;;;;;;8.37;7.50;;;12.80;99.90;;;;;;5068514;28;20568;-53
2021/09/19 01:58:41;;;;;;;9.17;8.27;;;12.80;99.90;;;;;;5069360;28;20420;-56
2021/09/19 02:01:08;;;;;;;8.87;7.97;;;12.70;99.90;;;;;;5069444;28;20412;-54
2021/09/19 02:03:36;;;;;;;10.47;8.00;;;12.70;99.90;;;;;;5050544;28;20436;-56
2021/09/19 02:06:01;;;;;;;9.80;8.10;;;12.60;99.90;;;;;;5066224;28;20424;-56
2021/09/19 02:08:28;;;;;;;8.80;7.90;;;12.70;99.90;;;;;;5068314;28;20468;-53
2021/09/19 02:10:54;;;;;;;8.20;7.40;;;12.70;99.90;;;;;;5070248;28;20180;-55
2021/09/19 02:13:19;;;;;;;9.43;8.10;;;12.70;99.90;;;;;;5071801;28;21142;-49
2021/09/19 02:15:45;;;;;;;8.80;7.57;;;12.80;99.90;;;;;;5084194;28;20710;-55
2021/09/19 02:18:10;;;;;;;8.03;7.20;;;12.70;99.90;;;;;;5072830;28;20738;-55
2021/09/19 02:20:36;;;;;;;9.70;7.43;;;12.80;99.90;;;;;;5069051;28;20190;-52
2021/09/19 02:23:02;;;;;;;10.07;7.40;;;12.70;99.90;;;;;;5068401;28;20189;-57
2021/09/19 02:25:27;;;;;;;8.77;7.97;;;12.70;99.90;;;;;;5067735;28;20186;-53
2021/09/19 02:27:53;;;;;;;7.23;6.53;;;12.70;99.90;;;;;;5055407;28;20208;-52
2021/09/19 02:30:18;;;;;;;6.37;5.77;;;12.70;99.90;;;;;;5048859;28;20159;-54
2021/09/19 02:32:44;;;;;;;8.17;6.77;;;12.70;99.90;;;;;;5057060;28;20726;-55
2021/09/19 02:35:11;;;;;;;7.17;6.47;;;12.70;99.90;;;;;;5069049;28;20267;-54
2021/09/19 02:37:37;;;;;;;6.30;5.70;;;12.60;99.90;;;;;;5067177;28;20201;-50
2021/09/19 02:40:04;;;;;;;9.27;6.13;;;12.60;99.90;;;;;;5069184;28;20408;-55
2021/09/19 02:42:30;;;;;;;6.10;5.50;;;12.60;99.90;;;;;;5068091;28;20427;-54
2021/09/19 02:44:55;;;;;;;6.53;5.30;;;12.50;99.90;;;;;;5069129;28;20416;-50
2021/09/19 02:47:21;;;;;;;6.10;5.60;;;12.50;99.90;;;;;;5067782;28;20198;-55
2021/09/19 02:49:46;;;;;;;5.50;5.00;;;12.50;99.90;;;;;;5068908;28;20178;-53
2021/09/19 02:52:12;;;;;;;6.40;4.97;;;12.40;99.90;;;;;;5068404;28;20616;-57
2021/09/19 02:54:38;;;;;;;5.60;4.63;;;12.40;99.90;;;;;;5068410;28;20928;-54
2021/09/19 02:57:03;;;;;;;6.27;5.53;;;12.40;99.90;;;;;;5069089;28;20666;-52
2021/09/19 02:59:29;;;;;;;6.17;5.57;;;12.40;99.90;;;;;;5068251;28;20486;-51
2021/09/19 03:01:55;;;;;;;6.30;5.27;;;12.40;99.90;;;;;;5067325;28;20205;-53
2021/09/19 03:04:20;;;;;;;5.63;5.13;;;12.40;99.90;;;;;;5067668;28;20193;-53
2021/09/19 03:06:46;;;;;;;5.37;4.87;;;12.40;99.90;;;;;;5062913;28;20272;-51
2021/09/19 03:09:11;;;;;;;5.87;5.30;;;12.30;99.90;;;;;;5072456;28;20185;-52
2021/09/19 03:11:37;;;;;;;5.83;5.23;;;12.40;99.90;;;;;;5092724;28;20177;-52
2021/09/19 03:14:03;;;;;;;5.90;5.13;;;12.30;99.90;;;;;;5079037;28;20174;-51
2021/09/19 03:16:28;;;;;;;9.10;5.00;;;12.20;99.90;;;;;;5072384;28;20181;-48
2021/09/19 03:18:54;;;;;;;5.13;4.70;;;12.30;99.90;;;;;;5074751;28;20196;-56
2021/09/19 03:21:19;;;;;;;5.13;4.63;;;12.30;99.90;;;;;;5092676;28;20668;-53
2021/09/19 03:23:45;;;;;;;5.67;4.80;;;12.30;99.90;;;;;;5080588;28;20254;-50
2021/09/19 03:26:10;;;;;;;8.77;5.47;;;12.30;99.90;;;;;;5091276;28;20592;-55
2021/09/19 03:28:36;;;;;;;7.77;4.93;;;12.20;99.90;;;;;;5083712;28;20240;-55
2021/09/19 03:31:02;;;;;;;5.30;4.80;;;12.20;99.90;;;;;;5086141;28;20183;-54
2021/09/19 03:33:27;;;;;;;5.50;4.80;;;12.20;99.90;;;;;;5088152;28;20260;-55
2021/09/19 03:35:53;;;;;;;6.50;5.00;;;12.10;99.90;;;;;;5072511;28;20185;-55
2021/09/19 03:38:18;;;;;;;8.00;5.60;;;12.10;99.90;;;;;;5088324;28;20188;-48
2021/09/19 03:40:44;;;;;;;6.23;5.60;;;12.10;99.90;;;;;;5079417;28;20568;-53
2021/09/19 03:43:10;;;;;;;5.70;5.20;;;12.10;99.90;;;;;;5081082;28;20224;-56
2021/09/19 03:45:35;;;;;;;6.10;5.23;;;12.10;99.90;;;;;;5082392;28;20200;-51
2021/09/19 03:48:06;;;;;;;5.40;4.90;;;12.00;99.90;;;;;;5092062;28;20197;-54
2021/09/19 03:50:31;;;;;;;5.80;5.23;;;12.10;99.90;;;;;;5072501;28;20244;-52
2021/09/19 03:52:58;;;;;;;6.57;5.87;;;12.10;99.90;;;;;;5089174;28;20916;-51
2021/09/19 03:55:23;;;;;;;5.63;5.07;;;12.10;99.90;;;;;;5081737;28;20212;-55
2021/09/19 03:57:49;;;;;;;5.60;5.10;;;12.10;99.90;;;;;;5090517;28;20449;-53
2021/09/19 04:00:15;;;;;;;5.93;5.00;;;12.10;99.90;;;;;;5071384;28;20600;-52
2021/09/19 04:02:41;;;;;;;5.90;5.27;;;12.10;99.90;;;;;;5091094;28;20192;-54
2021/09/19 04:05:08;;;;;;;6.80;5.37;;;12.10;99.90;;;;;;5076157;28;21111;-54
2021/09/19 04:07:33;;;;;;;6.30;5.70;;;12.10;99.90;;;;;;5068872;28;20198;-55
2021/09/19 04:09:59;;;;;;;6.70;6.10;;;12.10;99.90;;;;;;5070975;28;20528;-52
2021/09/19 04:12:25;;;;;;;6.97;6.00;;;12.20;99.90;;;;;;5071789;28;20169;-54
2021/09/19 04:14:50;;;;;;;5.00;4.50;;;12.10;99.90;;;;;;5069687;28;20182;-51
2021/09/19 04:17:16;;;;;;;5.80;5.30;;;12.10;99.90;;;;;;5071560;28;20170;-56
2021/09/19 04:19:41;;;;;;;5.70;5.10;;;12.10;99.90;;;;;;5070898;28;20247;-55
2021/09/19 04:22:07;;;;;;;5.87;5.27;;;12.10;99.90;;;;;;5071440;28;20952;-55
2021/09/19 04:24:33;;;;;;;6.10;5.37;;;12.00;99.90;;;;;;5070718;28;20177;-51
2021/09/19 04:26:59;;;;;;;5.07;4.57;;;12.00;99.90;;;;;;5071407;28;20181;-52
2021/09/19 04:29:25;;;;;;;5.93;4.87;;;12.00;99.90;;;;;;5070692;28;20400;-56
2021/09/19 04:31:50;;;;;;;5.27;4.77;;;12.00;99.90;;;;;;5070108;28;20189;-53
2021/09/19 04:34:16;;;;;;;5.87;5.10;;;12.00;99.90;;;;;;5071229;28;20266;-56
2021/09/19 04:36:41;;;;;;;5.50;4.87;;;12.00;99.90;;;;;;5069860;28;20185;-46
2021/09/19 04:39:07;;;;;;;6.10;4.70;;;12.00;99.90;;;;;;5070928;28;20208;-53
2021/09/19 04:41:33;;;;;;;5.97;5.37;;;12.10;99.90;;;;;;5069971;28;20185;-52
2021/09/19 04:43:58;;;;;;;7.70;5.30;;;12.10;99.90;;;;;;5054893;28;20547;-53
2021/09/19 04:46:24;;;;;;;5.23;4.73;;;12.00;99.90;;;;;;5062411;28;20215;-54
2021/09/19 04:48:53;;;;;;;7.63;5.30;;;12.00;99.90;;;;;;5070579;28;20216;-51
2021/09/19 04:51:19;;;;;;;5.57;4.90;;;12.00;99.90;;;;;;5070063;28;20731;-50
2021/09/19 04:53:45;;;;;;;6.47;4.57;;;12.00;99.90;;;;;;5071219;28;20444;-55
2021/09/19 04:56:11;;;;;;;5.50;5.00;;;12.00;99.90;;;;;;5070027;28;20922;-53
2021/09/19 04:58:36;;;;;;;5.90;4.43;;;12.00;99.90;;;;;;5070797;28;20284;-55
2021/09/19 05:01:02;;;;;;;5.30;4.60;;;12.00;99.90;;;;;;5069883;28;20181;-54
2021/09/19 05:03:27;;;;;;;5.63;4.90;;;12.00;99.90;;;;;;5070740;28;20166;-53
2021/09/19 05:05:53;;;;;;;7.33;5.17;;;12.00;99.90;;;;;;5063941;28;20221;-50
2021/09/19 05:08:19;;;;;;;6.37;4.87;;;12.00;99.90;;;;;;5050669;28;20198;-51
2021/09/19 05:10:45;;;;;;;5.37;4.87;;;12.00;99.90;;;;;;5053184;28;20234;-51
2021/09/19 05:13:10;;;;;;;5.33;4.70;;;12.00;99.90;;;;;;5070423;28;20411;-54
2021/09/19 05:15:36;;;;;;;5.73;4.47;;;12.00;99.90;;;;;;5070302;28;20166;-52
2021/09/19 05:18:01;;;;;;;5.30;4.63;;;12.00;99.90;;;;;;5066094;28;20269;-54
2021/09/19 05:20:27;;;;;;;4.90;4.40;;;12.00;99.90;;;;;;5081613;28;20214;-55
2021/09/19 05:22:52;;;;;;;5.00;4.60;;;11.90;99.90;;;;;;5082829;28;20185;-52
2021/09/19 05:25:18;;;;;;;5.30;4.80;;;11.90;99.90;;;;;;5086508;28;20192;-52
2021/09/19 05:27:43;;;;;;;6.40;4.80;;;11.90;99.90;;;;;;5078366;28;20220;-56
2021/09/19 05:30:09;;;;;;;5.23;4.73;;;12.00;99.90;;;;;;5090205;28;20213;-54
2021/09/19 05:32:35;;;;;;;5.77;4.43;;;12.00;99.90;;;;;;5077384;28;20415;-52
2021/09/19 05:35:01;;;;;;;5.53;5.03;;;12.00;99.90;;;;;;5081245;28;20929;-54
2021/09/19 05:37:26;;;;;;;4.37;3.97;;;12.00;99.90;;;;;;5068384;28;20186;-55
2021/09/19 05:39:52;;;;;;;4.60;4.20;;;12.10;99.90;;;;;;5088668;28;20921;-53
2021/09/19 05:42:17;;;;;;;5.07;4.60;;;12.20;99.90;;;;;;5084663;28;20564;-52
2021/09/19 05:44:43;;;;;;;5.00;4.50;;;12.20;99.90;;;;;;5043766;28;20668;-53
2021/09/19 05:47:08;;;;;;;5.07;4.57;;;12.20;99.90;;;;;;5040351;28;20607;-55
2021/09/19 05:49:34;;;;;;;5.07;4.57;;;12.20;99.90;;;;;;5028558;28;20818;-57
2021/09/19 05:52:00;;;;;;;5.17;4.33;;;12.20;99.90;;;;;;5029778;28;20171;-53
2021/09/19 05:54:25;;;;;;;4.97;4.47;;;12.20;99.90;;;;;;5018694;28;20223;-54
2021/09/19 05:56:51;;;;;;;4.87;4.40;;;12.30;99.90;;;;;;5035629;28;20193;-56
2021/09/19 05:59:16;;;;;;;6.70;4.20;;;12.40;99.90;;;;;;5042881;28;20239;-53
2021/09/19 06:01:42;;;;;;;5.07;4.57;;;12.40;99.90;;;;;;5035242;28;20583;-54
2021/09/19 06:04:08;;;;;;;4.63;4.23;;;12.40;99.90;;;;;;5034122;28;20698;-54
2021/09/19 06:06:33;;;;;;;5.60;4.63;;;12.30;99.90;;;;;;5047577;28;20222;-52
2021/09/19 06:08:59;;;;;;;5.47;4.60;;;12.40;99.90;;;;;;5047028;28;20492;-55
2021/09/19 06:11:25;;;;;;;6.23;4.77;;;12.50;99.90;;;;;;5045233;28;20586;-57
2021/09/19 06:13:50;;;;;;;5.00;4.50;;;12.60;99.90;;;;;;5037274;28;20267;-54
2021/09/19 06:16:16;;;;;;;6.60;4.87;;;12.60;99.90;;;;;;5032269;28;20638;-54
2021/09/19 06:18:41;;;;;;;7.40;4.00;;;12.70;99.90;;;;;;5032123;28;20222;-49
2021/09/19 06:21:07;;;;;;;4.70;4.30;;;12.80;99.90;;;;;;5029148;28;20239;-54
2021/09/19 06:23:33;;;;;;;4.37;3.97;;;12.90;99.90;;;;;;5042580;28;20190;-55
2021/09/19 06:25:59;;;;;;;5.10;4.67;;;12.90;99.90;;;;;;5024704;28;20278;-55
2021/09/19 06:28:25;;;;;;;6.43;4.27;;;12.90;99.90;;;;;;5048798;28;20205;-50
2021/09/19 06:30:50;;;;;;;4.30;3.90;;;12.90;99.90;;;;;;5033251;28;20442;-54
2021/09/19 06:33:16;;;;;;;5.00;4.40;;;13.00;99.90;;;;;;5042255;28;20186;-56
2021/09/19 06:35:42;;;;;;;4.80;4.40;;;13.00;99.90;;;;;;5028432;28;20703;-54
2021/09/19 06:38:08;;;;;;;4.40;4.00;;;13.10;99.90;;;;;;5029389;28;20210;-53
2021/09/19 06:40:34;;;;;;;4.93;4.00;;;13.10;99.90;;;;;;5027767;28;20513;-54
2021/09/19 06:42:59;;;;;;;4.87;4.07;;;13.20;99.90;;;;;;5033008;28;20491;-54
2021/09/19 06:45:25;;;;;;;4.50;4.10;;;13.20;99.90;;;;;;5056192;28;20213;-54
2021/09/19 06:47:50;;;;;;;5.03;4.27;;;13.10;99.90;;;;;;5073039;28;20204;-52
2021/09/19 06:50:16;;;;;;;4.33;3.93;;;13.20;99.90;;;;;;5070635;28;20165;-56
2021/09/19 06:52:42;;;;;;;4.67;4.17;;;13.20;99.90;;;;;;5073192;28;20243;-53
2021/09/19 06:55:08;;;;;;;4.80;4.40;;;13.20;99.90;;;;;;5071914;28;20174;-56
2021/09/19 06:57:34;;;;;;;4.87;4.47;;;13.30;99.90;;;;;;5052363;28;20254;-56
2021/09/19 06:59:59;;;;;;;4.70;4.20;;;13.30;99.90;;;;;;5064037;28;20499;-55
2021/09/19 07:02:25;;;;;;;4.07;3.70;;;13.50;99.90;;;;;;5071170;28;20552;-53
2021/09/19 07:04:50;;;;;;;5.47;4.87;;;13.50;99.90;;;;;;5072627;28;20644;-53
2021/09/19 07:07:18;;;;;;;4.97;4.40;;;13.60;99.90;;;;;;5069303;28;20233;-56
2021/09/19 07:09:44;;;;;;;4.90;4.40;;;13.70;99.90;;;;;;5071011;28;20178;-52
2021/09/19 07:12:10;;;;;;;4.67;4.20;;;13.90;99.90;;;;;;5072007;28;20956;-53
2021/09/19 07:14:35;;;;;;;6.10;5.30;;;13.90;99.90;;;;;;5071186;28;20513;-51
2021/09/19 07:17:01;;;;;;;6.20;5.50;;;14.00;99.90;;;;;;5067850;28;20639;-56
2021/09/19 07:19:27;;;;;;;8.00;6.57;;;14.00;99.90;;;;;;5075190;28;20188;-50
2021/09/19 07:21:52;;;;;;;7.47;6.77;;;13.90;99.90;;;;;;5075039;28;20181;-52
2021/09/19 07:24:19;;;;;;;9.90;7.17;;;13.80;99.90;;;;;;5078279;28;20557;-53
2021/09/19 07:26:44;;;;;;;7.60;6.90;;;13.80;99.90;;;;;;5084541;28;20638;-54
2021/09/19 07:29:10;;;;;;;7.57;6.87;;;13.80;99.90;;;;;;5079699;28;20477;-56
2021/09/19 07:31:36;;;;;;;7.13;6.13;;;13.90;99.90;;;;;;5090183;28;20915;-55
2021/09/19 07:34:03;;;;;;;8.40;6.03;;;13.80;99.90;;;;;;5082081;28;20488;-54
2021/09/19 07:36:34;;;;;;;8.00;7.20;;;13.90;99.90;;;;;;5067119;28;20484;-54
2021/09/19 07:39:05;;;;;;;7.97;7.23;;;13.90;99.90;;;;;;5064105;28;20439;-54
2021/09/19 07:41:31;;;;;;;8.47;6.60;;;13.90;99.90;;;;;;5072221;28;20388;-54
2021/09/19 07:43:57;;;;;;;7.80;7.10;;;14.00;99.90;;;;;;5069977;28;21138;-55
2021/09/19 07:46:23;;;;;;;8.10;7.30;;;14.00;99.90;;;;;;5072268;28;20400;-54
2021/09/19 07:48:49;;;;;;;8.23;7.40;;;13.90;99.90;;;;;;5071082;28;20582;-55
2021/09/19 07:51:15;;;;;;;8.03;7.23;;;13.90;99.90;;;;;;5072015;28;20162;-50
2021/09/19 07:53:41;;;;;;;8.00;7.30;;;14.00;99.90;;;;;;5070561;28;20514;-50
2021/09/19 07:56:07;;;;;;;8.43;7.63;;;14.00;99.90;;;;;;5071363;28;20173;-50
2021/09/19 07:58:32;;;;;;;8.00;7.30;;;13.90;99.90;;;;;;5071066;28;21190;-54
2021/09/19 08:00:58;;;;;;;7.40;6.73;;;14.00;99.90;;;;;;5071001;28;20186;-55
2021/09/19 08:03:23;;;;;;;7.60;6.90;;;14.10;99.90;;;;;;5071630;28;20538;-53
2021/09/19 08:05:49;;;;;;;7.60;6.90;;;14.10;99.90;;;;;;5070837;28;20174;-56
2021/09/19 08:08:15;;;;;;;7.67;6.30;;;14.00;99.90;;;;;;5071688;28;20251;-52
2021/09/19 08:10:40;;;;;;;6.80;6.10;;;14.00;99.90;;;;;;5070756;28;20178;-49
2021/09/19 08:13:06;;;;;;;7.13;6.53;;;14.00;99.90;;;;;;5071317;28;20548;-51
2021/09/19 08:15:32;;;;;;;6.80;6.20;;;13.90;99.90;;;;;;5070322;28;20219;-52
2021/09/19 08:17:58;;;;;;;7.50;6.90;;;13.90;99.90;;;;;;5063700;28;20236;-49
2021/09/19 08:20:23;;;;;;;7.10;6.57;;;14.10;99.90;;;;;;5049939;28;20241;-53
2021/09/19 08:22:49;;;;;;;8.27;7.47;;;14.00;99.90;;;;;;5070158;28;20186;-54
2021/09/19 08:25:15;;;;;;;8.40;7.70;;;14.00;99.90;;;;;;5068056;28;20200;-55
2021/09/19 08:27:41;;;;;;;8.87;8.17;;;14.00;99.90;;;;;;5070297;28;20194;-53
2021/09/19 08:30:09;;;;;;;9.50;8.63;;;14.00;99.90;;;;;;5062269;28;20516;-54
2021/09/19 08:32:35;;;;;;;9.63;8.67;;;14.00;99.90;;;;;;5079015;28;20422;-51
2021/09/19 08:35:01;;;;;;;8.93;8.20;;;14.00;99.90;;;;;;5090227;28;20751;-54
2021/09/19 08:37:27;;;;;;;8.93;8.23;;;14.20;99.90;;;;;;5076603;28;20504;-54
2021/09/19 08:39:53;;;;;;;8.60;8.00;;;14.40;99.90;;;;;;5090092;28;20415;-52
2021/09/19 08:42:20;;;;;;;9.23;8.40;;;14.60;99.90;;;;;;5082840;28;20675;-52
2021/09/19 08:44:46;;;;;;;8.33;7.70;;;14.70;99.60;;;;;;5062339;28;20405;-52
2021/09/19 08:47:12;;;;;;;8.60;8.00;;;14.80;1.00;;;;;;5052024;28;20829;-51
2021/09/19 08:49:38;;;;;;;9.07;8.37;;;14.70;1.00;;;;;;5050785;28;20400;-55
2021/09/19 08:52:04;;;;;;;9.17;8.47;;;14.80;1.00;;;;;;5059003;28;20439;-56
2021/09/19 08:54:30;;;;;;;8.73;8.07;;;14.80;1.00;;;;;;5070367;28;20446;-55
2021/09/19 08:56:55;;;;;;;8.60;7.90;;;14.80;1.00;;;;;;5069711;28;20182;-55
2021/09/19 08:59:21;;;;;;;8.23;7.63;;;14.90;1.00;;;;;;5070014;28;20182;-52
2021/09/19 09:02:03;;;;;;;9.27;8.47;;;14.90;1.00;;;;;;5069108;28;20185;-53
2021/09/19 09:04:29;;;;;;;8.20;7.60;;;14.90;1.00;;;;;;5070710;28;20168;-52
2021/09/19 09:06:55;;;;;;;9.03;8.27;;;15.00;1.00;;;;;;5069282;28;20431;-56
2021/09/19 09:09:21;;;;;;;8.60;7.80;;;15.00;1.00;;;;;;5070056;28;20505;-50
2021/09/19 09:12:07;;;;;;;8.27;7.67;;;15.00;1.00;;;;;;5069562;28;21079;-52
2021/09/19 09:14:44;;;;;;;7.00;6.50;;;15.10;1.00;;;;;;5070061;28;20261;-56
2021/09/19 09:17:29;;;;;;;6.23;5.83;;;15.20;1.00;;;;;;5069402;28;20435;-55
2021/09/19 09:19:58;;;;;;;6.67;6.17;;;15.40;1.00;;;;;;5069890;28;20401;-50
2021/09/19 09:22:32;;;;;;;7.40;6.80;;;15.50;1.00;;;;;;5069286;28;20416;-54
2021/09/19 09:25:07;;;;;;;7.30;6.70;;;15.50;1.00;;;;;;5070002;28;20384;-51
2021/09/19 09:27:42;;;;;;;6.80;6.30;;;15.70;1.00;;;;;;5069187;28;20447;-51
2021/09/19 09:30:25;;;;;;;7.73;7.10;;;15.70;1.00;;;;;;5065785;28;20434;-51
2021/09/19 09:32:58;;;;;;;6.50;6.00;;;15.70;1.00;;;;;;5068311;28;20441;-52
2021/09/19 09:35:35;;;;;;;6.30;5.87;;;15.60;1.00;;;;;;5087871;28;20846;-55
2021/09/19 09:38:22;;;;;;;6.87;6.37;;;15.60;1.00;;;;;;5074977;28;20428;-56
2021/09/19 09:40:49;;;;;;;6.37;5.77;;;15.60;1.00;;;;;;5069572;28;20431;-55
2021/09/19 09:43:17;;;;;;;6.47;5.97;;;15.70;1.00;;;;;;5059097;28;20568;-57
2021/09/19 09:45:45;;;;;;;6.90;6.30;;;15.50;1.00;;;;;;5049884;28;20434;-54
2021/09/19 09:48:30;;;;;;;5.17;4.80;;;15.50;1.00;;;;;;5060224;28;20866;-52
2021/09/19 09:50:59;;;;;;;5.50;5.10;;;15.60;1.00;;;;;;5069712;28;21109;-55
2021/09/19 09:53:25;;;;;;;5.97;5.50;;;15.50;1.00;;;;;;5068327;28;20424;-56
2021/09/19 09:55:53;;;;;;;5.23;4.83;;;15.40;1.00;;;;;;5069622;28;20412;-55
2021/09/19 09:58:21;;;;;;;5.47;5.07;;;15.60;1.00;;;;;;5068575;28;20444;-53
2021/09/19 10:00:49;;;;;;;5.93;5.43;;;15.90;99.90;;;;;;5069633;28;20483;-55
2021/09/19 10:03:15;;;;;;;6.23;5.63;;;15.90;99.90;;;;;;5059202;28;20779;-51
2021/09/19 10:05:42;;;;;;;5.50;5.10;;;16.20;1.00;;;;;;5049218;28;20417;-50
2021/09/19 10:08:08;;;;;;;5.73;5.23;;;16.80;99.90;;;;;;5055277;28;20461;-54
2021/09/19 10:10:39;;;;;;;5.67;5.17;;;17.80;99.90;;;;;;5069333;28;20965;-50
2021/09/19 10:13:05;;;;;;;6.20;5.70;;;18.70;99.90;;;;;;5067164;28;20463;-52
2021/09/19 10:15:31;;;;;;;5.90;5.50;;;19.30;99.90;;;;;;5068677;28;20436;-55
2021/09/19 10:17:57;;;;;;;5.70;5.30;;;19.80;99.90;;;;;;5068936;28;20424;-53
2021/09/19 10:20:37;;;;;;;6.10;5.60;;;19.10;99.90;;;;;;5067708;28;20442;-55
2021/09/19 10:23:16;;;;;;;5.90;5.50;;;19.10;99.90;;;;;;5067909;28;20519;-50
2021/09/19 10:26:07;;;;;;;6.10;5.70;;;18.60;99.90;;;;;;5068507;28;20439;-54
2021/09/19 10:28:44;;;;;;;5.90;5.50;;;18.30;99.90;;;;;;5069074;28;20451;-47
2021/09/19 10:31:19;;;;;;;5.43;4.93;;;18.30;99.90;;;;;;5061283;28;20501;-51
2021/09/19 10:33:56;;;;;;;5.73;4.93;;;18.10;99.90;;;;;;5073110;28;20409;-53
2021/09/19 10:36:36;;;;;;;6.53;6.13;;;17.80;99.90;;;;;;5080512;28;20905;-56
2021/09/19 10:39:39;;;;;;;5.93;5.53;;;17.60;99.90;;;;;;5088271;28;20422;-52
2021/09/19 10:42:30;;;;;;;6.07;5.67;;;17.40;99.90;;;;;;5010717;28;20783;-55
2021/09/19 10:45:07;;;;;;;5.30;5.00;;;17.40;99.90;;;;;;5076665;28;20445;-52
2021/09/19 10:47:48;;;;;;;5.20;4.80;;;17.20;99.90;;;;;;5064962;28;20996;-51
2021/09/19 10:50:22;;;;;;;6.20;5.80;;;17.20;99.90;;;;;;5069548;28;20426;-54
2021/09/19 10:52:51;;;;;;;6.17;5.77;;;17.30;99.90;;;;;;5075865;28;20464;-55
2021/09/19 10:55:19;;;;;;;6.10;5.47;;;17.10;99.90;;;;;;5086315;28;20425;-52
2021/09/19 10:57:59;;;;;;;5.83;5.50;;;17.10;99.90;;;;;;5070070;28;20472;-49
2021/09/19 11:00:27;;;;;;;5.53;5.23;;;17.00;99.90;;;;;;5067328;28;20423;-54
2021/09/19 11:03:14;;;;;;;5.33;4.77;;;17.00;99.90;;;;;;5061793;28;20960;-53
2021/09/19 11:05:42;;;;;;;5.60;5.20;;;16.90;99.90;;;;;;5068988;28;20476;-53
2021/09/19 11:08:08;;;;;;;6.20;5.27;;;16.90;99.90;;;;;;5067970;28;20466;-54
2021/09/19 11:11:07;;;;;;;4.97;4.67;;;16.90;99.90;;;;;;5068855;28;20414;-54
2021/09/19 11:13:45;;;;;;;5.93;5.53;;;17.00;99.90;;;;;;5067921;28;20194;-50
2021/09/19 11:16:23;;;;;;;6.23;5.73;;;17.10;99.90;;;;;;5068668;28;20500;-50
2021/09/19 11:19:04;;;;;;;5.90;5.40;;;17.00;99.90;;;;;;5067981;28;20426;-54
2021/09/19 11:21:36;;;;;;;6.33;5.93;;;17.00;99.90;;;;;;5068815;28;20456;-55
2021/09/19 11:24:14;;;;;;;5.80;5.40;;;17.00;99.90;;;;;;5067941;28;20449;-55
2021/09/19 11:26:41;;;;;;;6.00;5.60;;;16.90;99.90;;;;;;5068599;28;20467;-54
2021/09/19 11:29:13;;;;;;;6.60;6.13;;;16.80;99.90;;;;;;5067670;28;20497;-56
2021/09/19 11:31:40;;;;;;;5.70;5.30;;;16.70;99.90;;;;;;5070526;28;20901;-52
2021/09/19 11:34:12;;;;;;;6.57;5.97;;;16.80;99.90;;;;;;5071302;28;20444;-53
2021/09/19 11:36:44;;;;;;;5.90;5.40;;;16.70;99.90;;;;;;5071048;28;20464;-55
2021/09/19 11:39:10;;;;;;;5.83;5.43;;;16.80;99.90;;;;;;5071703;28;20858;-50
2021/09/19 11:41:36;;;;;;;6.50;5.90;;;16.60;99.90;;;;;;5072167;28;20826;-53
2021/09/19 11:44:02;;;;;;;6.07;5.67;;;16.60;99.90;;;;;;5070494;28;20521;-54
2021/09/19 11:46:30;;;;;;;5.93;5.53;;;16.60;99.90;;;;;;5072236;28;20184;-55
2021/09/19 11:48:56;;;;;;;5.60;5.20;;;16.70;99.90;;;;;;5071370;28;20537;-55
2021/09/19 11:51:23;;;;;;;5.93;5.53;;;16.90;99.90;;;;;;5072134;28;20409;-55
2021/09/19 11:53:57;;;;;;;5.77;5.37;;;17.00;99.90;;;;;;5071046;28;20480;-56
2021/09/19 11:56:24;;;;;;;6.53;6.00;;;17.00;99.90;;;;;;5071990;28;20393;-54
2021/09/19 11:58:52;;;;;;;5.70;5.30;;;17.10;99.90;;;;;;5071052;28;20456;-49
2021/09/19 12:01:26;;;;;;;5.30;4.90;;;17.30;99.90;;;;;;5072002;28;20417;-53
2021/09/19 12:03:53;;;;;;;6.23;5.70;;;17.40;99.90;;;;;;5071149;28;20476;-52
2021/09/19 12:06:20;;;;;;;6.10;5.70;;;17.40;99.90;;;;;;5071742;28;20395;-52
2021/09/19 12:08:45;;;;;;;5.40;5.00;;;17.70;99.90;;;;;;5070783;28;20462;-56
2021/09/19 12:11:11;;;;;;;6.13;5.63;;;17.70;99.90;;;;;;5071515;28;20403;-55
2021/09/19 12:13:39;;;;;;;5.90;5.50;;;17.70;99.90;;;;;;5070312;28;20638;-56
2021/09/19 12:16:10;;;;;;;6.20;5.70;;;17.70;99.90;;;;;;5069841;28;20516;-53
2021/09/19 12:18:40;;;;;;;6.30;5.70;;;17.70;99.90;;;;;;5070729;28;20898;-54
2021/09/19 12:21:09;;;;;;;7.43;6.73;;;17.60;99.90;;;;;;5070680;28;20451;-51
2021/09/19 12:23:44;;;;;;;6.30;5.90;;;17.60;99.90;;;;;;5065793;28;20473;-50
2021/09/19 12:26:14;;;;;;;5.90;5.50;;;17.70;99.90;;;;;;5051477;28;20399;-53
2021/09/19 12:28:43;;;;;;;6.03;5.63;;;17.70;99.90;;;;;;5054102;28;20477;-50
2021/09/19 12:31:10;;;;;;;6.13;5.77;;;17.60;99.90;;;;;;5071298;28;20412;-54
2021/09/19 12:33:50;;;;;;;6.00;5.60;;;17.60;99.90;;;;;;5069650;28;20500;-53
2021/09/19 12:36:15;;;;;;;6.00;5.50;;;17.40;99.90;;;;;;5071132;28;20843;-55
2021/09/19 12:38:45;;;;;;;5.83;5.43;;;17.30;99.90;;;;;;5068821;28;20456;-54
2021/09/19 12:41:12;;;;;;;6.13;5.73;;;17.30;99.90;;;;;;5069751;28;20197;-52
2021/09/19 12:43:44;;;;;;;5.37;4.97;;;17.30;99.90;;;;;;5070325;28;20929;-53
2021/09/19 12:46:15;;;;;;;5.93;5.53;;;17.20;99.90;;;;;;5070638;28;20427;-50
2021/09/19 12:48:43;;;;;;;5.20;4.90;;;17.10;99.90;;;;;;5071053;28;20514;-54
2021/09/19 12:51:14;;;;;;;6.90;5.60;;;17.30;99.90;;;;;;5070824;28;20449;-57